Time,TemperatureF,DewpointF,PressureIn,WindDirection,WindDirectionDegrees,WindSpeedMPH,WindSpeedGustMPH,Humidity,HourlyPrecipIn,Conditions,Clouds,dailyrainin,SoftwareType,DateUTC
2013-01-04 00:04:00,21.9,12.0,29.96,WNW,283,2.0,6.0,65,0.00,,,0.00,weatherlink.com 1.10,2013-01-04 05:04:00,
2013-01-04 00:19:00,21.7,12.0,29.95,West,262,1.0,6.0,66,0.00,,,0.00,weatherlink.com 1.10,2013-01-04 05:19:00,
2013-01-04 00:34:00,21.8,12.0,29.94,West,274,2.0,8.0,67,0.00,,,0.00,weatherlink.com 1.10,2013-01-04 05:34:00,
2013-01-04 00:49:00,22.0,13.0,29.94,WNW,293,1.0,6.0,67,0.00,,,0.00,weatherlink.com 1.10,2013-01-04 05:49:00,
2013-01-04 01:05:00,22.0,13.0,29.93,West,260,4.0,8.0,68,0.00,,,0.00,weatherlink.com 1.10,2013-01-04 06:05:00,
2013-01-04 01:20:00,22.0,13.0,29.93,WNW,284,1.0,9.0,69,0.00,,,0.00,weatherlink.com 1.10,2013-01-04 06:20:00,
2013-01-04 01:35:00,22.3,14.0,29.93,West,281,3.0,8.0,70,0.00,,,0.00,weatherlink.com 1.10,2013-01-04 06:35:00,
2013-01-04 01:50:00,22.6,14.0,29.93,SW,236,4.0,9.0,69,0.00,,,0.00,weatherlink.com 1.10,2013-01-04 06:50:00,
2013-01-04 02:05:00,22.6,14.0,29.93,WNW,300,2.0,10.0,70,0.00,,,0.00,weatherlink.com 1.10,2013-01-04 07:05:00,
2013-01-04 02:20:00,22.5,14.0,29.93,West,264,5.0,10.0,70,0.00,,,0.00,weatherlink.com 1.10,2013-01-04 07:20:00,
2013-01-04 02:35:00,22.6,14.0,29.93,West,262,2.0,11.0,70,0.00,,,0.00,weatherlink.com 1.10,2013-01-04 07:35:00,
2013-01-04 02:50:00,22.5,14.0,29.93,WNW,295,4.0,11.0,71,0.00,,,0.00,weatherlink.com 1.10,2013-01-04 07:50:00,
2013-01-04 03:05:00,22.5,15.0,29.93,WNW,286,2.0,8.0,72,0.00,,,0.00,weatherlink.com 1.10,2013-01-04 08:05:00,
2013-01-04 03:20:00,22.3,15.0,29.92,WSW,240,0.0,7.0,72,0.00,,,0.00,weatherlink.com 1.10,2013-01-04 08:20:00,
2013-01-04 03:35:00,22.3,15.0,29.92,NW,311,0.0,7.0,73,0.00,,,0.00,weatherlink.com 1.10,2013-01-04 08:35:00,
2013-01-04 03:50:00,22.5,15.0,29.91,WNW,298,3.0,6.0,74,0.00,,,0.00,weatherlink.com 1.10,2013-01-04 08:50:00,
2013-01-04 04:05:00,22.5,15.0,29.91,West,264,5.0,7.0,74,0.00,,,0.00,weatherlink.com 1.10,2013-01-04 09:05:00,
2013-01-04 04:20:00,22.8,16.0,29.91,NW,318,3.0,7.0,74,0.00,,,0.00,weatherlink.com 1.10,2013-01-04 09:20:00,
2013-01-04 04:35:00,22.9,16.0,29.90,SW,214,2.0,7.0,75,0.00,,,0.00,weatherlink.com 1.10,2013-01-04 09:35:00,
2013-01-04 04:50:00,23.5,17.0,29.90,West,281,1.0,8.0,75,0.00,,,0.00,weatherlink.com 1.10,2013-01-04 09:50:00,
2013-01-04 05:05:00,23.8,17.0,29.90,WSW,248,2.0,8.0,76,0.00,,,0.00,weatherlink.com 1.10,2013-01-04 10:05:00,
2013-01-04 05:20:00,23.5,17.0,29.91,WNW,282,0.0,5.0,76,0.00,,,0.00,weatherlink.com 1.10,2013-01-04 10:20:00,
2013-01-04 05:35:00,23.8,18.0,29.91,West,268,1.0,8.0,77,0.00,,,0.00,weatherlink.com 1.10,2013-01-04 10:35:00,
2013-01-04 05:50:00,24.1,18.0,29.91,NW,317,3.0,7.0,78,0.00,,,0.00,weatherlink.com 1.10,2013-01-04 10:50:00,
2013-01-04 06:05:00,24.7,18.0,29.91,WNW,286,1.0,14.0,77,0.00,,,0.00,weatherlink.com 1.10,2013-01-04 11:05:00,
2013-01-04 06:20:00,24.9,19.0,29.91,WNW,287,3.0,10.0,77,0.00,,,0.00,weatherlink.com 1.10,2013-01-04 11:20:00,
2013-01-04 06:35:00,24.7,18.0,29.91,West,277,1.0,8.0,77,0.00,,,0.00,weatherlink.com 1.10,2013-01-04 11:35:00,
2013-01-04 06:50:00,24.8,19.0,29.92,WNW,287,2.0,12.0,78,0.00,,,0.00,weatherlink.com 1.10,2013-01-04 11:50:00,
2013-01-04 07:05:00,24.8,19.0,29.92,NW,311,2.0,6.0,78,0.00,,,0.00,weatherlink.com 1.10,2013-01-04 12:05:00,
2013-01-04 07:20:00,25.1,19.0,29.93,NW,312,2.0,9.0,78,0.00,,,0.00,weatherlink.com 1.10,2013-01-04 12:20:00,
2013-01-04 07:35:00,26.2,20.0,29.92,North,11,1.0,12.0,77,0.00,,,0.00,weatherlink.com 1.10,2013-01-04 12:35:00,
2013-01-04 07:50:00,27.2,20.0,29.92,NW,316,2.0,9.0,75,0.00,,,0.00,weatherlink.com 1.10,2013-01-04 12:50:00,
2013-01-04 08:05:00,27.6,21.0,29.92,SSW,197,1.0,8.0,75,0.00,,,0.00,weatherlink.com 1.10,2013-01-04 13:05:00,
2013-01-04 08:21:00,28.1,21.0,29.92,WNW,287,3.0,11.0,74,0.00,,,0.00,weatherlink.com 1.10,2013-01-04 13:21:00,
2013-01-04 08:36:00,28.0,21.0,29.93,West,267,1.0,10.0,75,0.00,,,0.00,weatherlink.com 1.10,2013-01-04 13:36:00,
2013-01-04 08:51:00,28.7,22.0,29.93,WSW,245,5.0,13.0,75,0.00,,,0.00,weatherlink.com 1.10,2013-01-04 13:51:00,
2013-01-04 09:06:00,29.3,22.0,29.92,West,281,1.0,13.0,74,0.00,,,0.00,weatherlink.com 1.10,2013-01-04 14:06:00,
2013-01-04 09:21:00,30.1,22.0,29.92,SSW,207,8.0,11.0,72,0.00,,,0.00,weatherlink.com 1.10,2013-01-04 14:21:00,
2013-01-04 09:36:00,30.9,23.0,29.92,WSW,252,5.0,10.0,71,0.00,,,0.00,weatherlink.com 1.10,2013-01-04 14:36:00,
2013-01-04 09:51:00,32.2,23.0,29.91,West,259,7.0,11.0,69,0.00,,,0.00,weatherlink.com 1.10,2013-01-04 14:51:00,
2013-01-04 10:06:00,33.8,23.0,29.91,SSW,201,1.0,14.0,66,0.00,,,0.00,weatherlink.com 1.10,2013-01-04 15:06:00,
2013-01-04 10:21:00,34.3,24.0,29.91,WSW,250,4.0,11.0,65,0.00,,,0.00,weatherlink.com 1.10,2013-01-04 15:21:00,
2013-01-04 10:36:00,35.1,24.0,29.90,West,266,4.0,14.0,63,0.00,,,0.00,weatherlink.com 1.10,2013-01-04 15:36:00,
2013-01-04 10:51:00,35.2,23.0,29.89,WNW,284,3.0,16.0,61,0.00,,,0.00,weatherlink.com 1.10,2013-01-04 15:51:00,
2013-01-04 11:06:00,36.2,23.0,29.88,West,279,5.0,12.0,58,0.00,,,0.00,weatherlink.com 1.10,2013-01-04 16:06:00,
2013-01-04 11:21:00,36.1,23.0,29.87,North,349,4.0,18.0,59,0.00,,,0.00,weatherlink.com 1.10,2013-01-04 16:21:00,
2013-01-04 11:36:00,36.4,23.0,29.86,West,264,4.0,11.0,58,0.00,,,0.00,weatherlink.com 1.10,2013-01-04 16:36:00,
2013-01-04 11:51:00,37.5,23.0,29.84,WSW,256,5.0,12.0,56,0.00,,,0.00,weatherlink.com 1.10,2013-01-04 16:51:00,
2013-01-04 12:06:00,38.4,24.0,29.83,SW,218,5.0,13.0,56,0.00,,,0.00,weatherlink.com 1.10,2013-01-04 17:06:00,
2013-01-04 12:21:00,37.3,22.0,29.82,WSW,241,3.0,15.0,55,0.00,,,0.00,weatherlink.com 1.10,2013-01-04 17:21:00,
2013-01-04 12:36:00,36.9,23.0,29.81,WNW,284,8.0,14.0,57,0.00,,,0.00,weatherlink.com 1.10,2013-01-04 17:36:00,
2013-01-04 12:51:00,37.7,22.0,29.79,WNW,289,3.0,17.0,54,0.00,,,0.00,weatherlink.com 1.10,2013-01-04 17:51:00,
2013-01-04 13:06:00,38.0,23.0,29.79,WSW,250,11.0,17.0,56,0.00,,,0.00,weatherlink.com 1.10,2013-01-04 18:06:00,
2013-01-04 13:21:00,37.3,22.0,29.78,NW,305,2.0,17.0,55,0.00,,,0.00,weatherlink.com 1.10,2013-01-04 18:21:00,
2013-01-04 13:36:00,37.4,23.0,29.78,SSW,203,3.0,13.0,57,0.00,,,0.00,weatherlink.com 1.10,2013-01-04 18:36:00,
2013-01-04 13:51:00,37.3,23.0,29.78,WNW,284,5.0,13.0,57,0.00,,,0.00,weatherlink.com 1.10,2013-01-04 18:51:00,
2013-01-04 14:06:00,37.4,23.0,29.78,SW,225,4.0,12.0,56,0.00,,,0.00,weatherlink.com 1.10,2013-01-04 19:06:00,
2013-01-04 14:21:00,37.2,23.0,29.77,WNW,298,3.0,16.0,57,0.00,,,0.00,weatherlink.com 1.10,2013-01-04 19:21:00,
2013-01-04 14:37:00,37.2,23.0,29.78,WNW,290,5.0,13.0,57,0.00,,,0.00,weatherlink.com 1.10,2013-01-04 19:37:00,
2013-01-04 14:52:00,37.1,23.0,29.78,SSW,208,7.0,14.0,58,0.00,,,0.00,weatherlink.com 1.10,2013-01-04 19:52:00,
2013-01-04 15:07:00,36.9,24.0,29.78,SW,219,0.0,9.0,59,0.00,,,0.00,weatherlink.com 1.10,2013-01-04 20:07:00,
2013-01-04 15:22:00,36.7,24.0,29.79,WNW,287,1.0,10.0,60,0.00,,,0.00,weatherlink.com 1.10,2013-01-04 20:22:00,
2013-01-04 15:37:00,36.8,24.0,29.79,West,265,7.0,15.0,61,0.00,,,0.00,weatherlink.com 1.10,2013-01-04 20:37:00,
2013-01-04 15:52:00,36.6,25.0,29.80,WSW,244,5.0,10.0,62,0.00,,,0.00,weatherlink.com 1.10,2013-01-04 20:52:00,
2013-01-04 16:07:00,36.4,24.0,29.79,WNW,297,2.0,16.0,62,0.00,,,0.00,weatherlink.com 1.10,2013-01-04 21:07:00,
2013-01-04 16:22:00,36.1,24.0,29.79,SSW,207,1.0,11.0,63,0.00,,,0.00,weatherlink.com 1.10,2013-01-04 21:22:00,
2013-01-04 16:37:00,35.9,25.0,29.79,WSW,242,2.0,11.0,64,0.00,,,0.00,weatherlink.com 1.10,2013-01-04 21:37:00,
2013-01-04 16:52:00,35.7,25.0,29.79,WSW,242,5.0,11.0,65,0.00,,,0.00,weatherlink.com 1.10,2013-01-04 21:52:00,
2013-01-04 17:07:00,35.6,25.0,29.79,WSW,245,7.0,8.0,66,0.00,,,0.00,weatherlink.com 1.10,2013-01-04 22:07:00,
2013-01-04 17:22:00,35.5,25.0,29.80,West,273,1.0,7.0,66,0.00,,,0.00,weatherlink.com 1.10,2013-01-04 22:22:00,
2013-01-04 17:37:00,35.4,25.0,29.80,SW,222,1.0,7.0,66,0.00,,,0.00,weatherlink.com 1.10,2013-01-04 22:37:00,
2013-01-04 17:52:00,35.2,25.0,29.80,West,266,8.0,8.0,67,0.00,,,0.00,weatherlink.com 1.10,2013-01-04 22:52:00,
2013-01-04 18:07:00,35.3,25.0,29.80,WSW,242,1.0,8.0,67,0.00,,,0.00,weatherlink.com 1.10,2013-01-04 23:07:00,
2013-01-04 18:22:00,35.2,25.0,29.80,NNW,340,0.0,9.0,67,0.00,,,0.00,weatherlink.com 1.10,2013-01-04 23:22:00,
2013-01-04 18:37:00,35.1,25.0,29.81,WNW,288,3.0,7.0,67,0.00,,,0.00,weatherlink.com 1.10,2013-01-04 23:37:00,
2013-01-04 18:52:00,35.0,25.0,29.81,SW,231,3.0,10.0,66,0.00,,,0.00,weatherlink.com 1.10,2013-01-04 23:52:00,
2013-01-04 19:07:00,34.7,25.0,29.81,West,260,5.0,6.0,67,0.00,,,0.00,weatherlink.com 1.10,2013-01-05 00:07:00,
2013-01-04 19:22:00,34.5,25.0,29.81,WSW,244,6.0,7.0,67,0.00,,,0.00,weatherlink.com 1.10,2013-01-05 00:22:00,
2013-01-04 19:37:00,34.4,25.0,29.81,West,266,3.0,8.0,68,0.00,,,0.00,weatherlink.com 1.10,2013-01-05 00:37:00,
2013-01-04 19:52:00,34.3,25.0,29.81,West,260,0.0,9.0,69,0.00,,,0.00,weatherlink.com 1.10,2013-01-05 00:52:00,
2013-01-04 20:07:00,34.4,25.0,29.81,WSW,256,2.0,11.0,68,0.00,,,0.00,weatherlink.com 1.10,2013-01-05 01:07:00,
2013-01-04 20:22:00,34.3,25.0,29.81,WSW,242,3.0,9.0,68,0.00,,,0.00,weatherlink.com 1.10,2013-01-05 01:22:00,
2013-01-04 20:37:00,34.1,25.0,29.81,SW,228,6.0,11.0,68,0.00,,,0.00,weatherlink.com 1.10,2013-01-05 01:37:00,
2013-01-04 20:52:00,34.1,25.0,29.81,West,266,1.0,11.0,69,0.00,,,0.00,weatherlink.com 1.10,2013-01-05 01:52:00,
2013-01-04 21:07:00,34.1,25.0,29.82,SSW,207,2.0,8.0,69,0.00,,,0.00,weatherlink.com 1.10,2013-01-05 02:07:00,
2013-01-04 21:22:00,34.3,25.0,29.82,SW,235,4.0,10.0,69,0.00,,,0.00,weatherlink.com 1.10,2013-01-05 02:22:00,
2013-01-04 21:37:00,34.3,25.0,29.82,WSW,253,6.0,8.0,69,0.00,,,0.00,weatherlink.com 1.10,2013-01-05 02:37:00,
2013-01-04 21:52:00,34.2,25.0,29.82,SW,215,8.0,11.0,68,0.00,,,0.00,weatherlink.com 1.10,2013-01-05 02:52:00,
2013-01-04 22:07:00,34.1,25.0,29.82,SSW,207,4.0,9.0,68,0.00,,,0.00,weatherlink.com 1.10,2013-01-05 03:07:00,
2013-01-04 22:22:00,33.9,24.0,29.82,SSW,207,0.0,10.0,67,0.00,,,0.00,weatherlink.com 1.10,2013-01-05 03:22:00,
2013-01-04 22:37:00,33.9,24.0,29.82,West,260,1.0,9.0,67,0.00,,,0.00,weatherlink.com 1.10,2013-01-05 03:37:00,
2013-01-04 22:52:00,33.8,24.0,29.82,West,269,1.0,9.0,68,0.00,,,0.00,weatherlink.com 1.10,2013-01-05 03:52:00,
2013-01-04 23:07:00,33.9,24.0,29.82,NW,308,0.0,12.0,68,0.00,,,0.00,weatherlink.com 1.10,2013-01-05 04:07:00,
2013-01-04 23:22:00,33.9,24.0,29.81,West,277,4.0,11.0,68,0.00,,,0.00,weatherlink.com 1.10,2013-01-05 04:22:00,
2013-01-04 23:37:00,33.8,24.0,29.81,WSW,242,5.0,7.0,68,0.00,,,0.00,weatherlink.com 1.10,2013-01-05 04:37:00,
2013-01-04 23:52:00,33.4,23.0,29.81,SW,233,4.0,11.0,67,0.00,,,0.00,weatherlink.com 1.10,2013-01-05 04:52:00,